sensor_id;sensor_type;location;lat;lon;timestamp;P1;durP1;ratioP1;P2;durP2;ratioP2
31368;SDS011;18004;48.416;10.066;2023-05-10T00:01:05;6.82;;;1.55;;
31368;SDS011;18004;48.416;10.066;2023-05-10T00:03:31;3.80;;;2.80;;
31368;SDS011;18004;48.416;10.066;2023-05-10T00:05:57;13.43;;;7.03;;
31368;SDS011;18004;48.416;10.066;2023-05-10T00:08:23;19.15;;;9.93;;
31368;SDS011;18004;48.416;10.066;2023-05-10T00:10:49;16.50;;;9.85;;
31368;SDS011;18004;48.416;10.066;2023-05-10T00:13:14;5.10;;;3.75;;
31368;SDS011;18004;48.416;10.066;2023-05-10T00:15:40;0.82;;;0.80;;
31368;SDS011;18004;48.416;10.066;2023-05-10T00:18:06;0.63;;;0.57;;
31368;SDS011;18004;48.416;10.066;2023-05-10T00:20:32;1.40;;;0.73;;
31368;SDS011;18004;48.416;10.066;2023-05-10T00:22:58;6.80;;;0.85;;
31368;SDS011;18004;48.416;10.066;2023-05-10T00:25:24;0.90;;;0.80;;
31368;SDS011;18004;48.416;10.066;2023-05-10T00:27:49;1.55;;;0.70;;
31368;SDS011;18004;48.416;10.066;2023-05-10T00:30:15;0.80;;;0.77;;
31368;SDS011;18004;48.416;10.066;2023-05-10T00:32:41;1.10;;;0.80;;
31368;SDS011;18004;48.416;10.066;2023-05-10T00:35:08;1.27;;;0.52;;
31368;SDS011;18004;48.416;10.066;2023-05-10T00:37:34;2.78;;;1.42;;
31368;SDS011;18004;48.416;10.066;2023-05-10T00:40:00;0.63;;;0.63;;
31368;SDS011;18004;48.416;10.066;2023-05-10T00:42:26;2.10;;;0.70;;
31368;SDS011;18004;48.416;10.066;2023-05-10T00:44:52;0.68;;;0.60;;
31368;SDS011;18004;48.416;10.066;2023-05-10T00:47:18;2.90;;;0.90;;
31368;SDS011;18004;48.416;10.066;2023-05-10T00:49:44;2.45;;;0.60;;
31368;SDS011;18004;48.416;10.066;2023-05-10T00:52:10;0.40;;;0.40;;
31368;SDS011;18004;48.416;10.066;2023-05-10T00:54:36;1.27;;;0.70;;
31368;SDS011;18004;48.416;10.066;2023-05-10T00:57:02;0.50;;;0.50;;
31368;SDS011;18004;48.416;10.066;2023-05-10T00:59:28;4.72;;;0.63;;
31368;SDS011;18004;48.416;10.066;2023-05-10T01:01:54;0.70;;;0.60;;
31368;SDS011;18004;48.416;10.066;2023-05-10T01:04:20;8.57;;;1.20;;
31368;SDS011;18004;48.416;10.066;2023-05-10T01:06:50;1.58;;;0.98;;
31368;SDS011;18004;48.416;10.066;2023-05-10T01:09:18;0.88;;;0.77;;
31368;SDS011;18004;48.416;10.066;2023-05-10T01:11:45;5.88;;;2.80;;
31368;SDS011;18004;48.416;10.066;2023-05-10T01:14:11;3.75;;;2.80;;
31368;SDS011;18004;48.416;10.066;2023-05-10T01:16:38;2.33;;;1.55;;
31368;SDS011;18004;48.416;10.066;2023-05-10T01:19:14;1.63;;;1.20;;
31368;SDS011;18004;48.416;10.066;2023-05-10T01:27:47;5.80;;;1.77;;
31368;SDS011;18004;48.416;10.066;2023-05-10T01:30:41;3.08;;;0.95;;
31368;SDS011;18004;48.416;10.066;2023-05-10T01:36:23;0.50;;;0.50;;
31368;SDS011;18004;48.416;10.066;2023-05-10T01:47:03;0.50;;;0.50;;
31368;SDS011;18004;48.416;10.066;2023-05-10T01:49:34;3.35;;;0.55;;
31368;SDS011;18004;48.416;10.066;2023-05-10T01:54:33;0.40;;;0.40;;
31368;SDS011;18004;48.416;10.066;2023-05-10T01:57:02;0.60;;;0.60;;
31368;SDS011;18004;48.416;10.066;2023-05-10T01:59:33;1.40;;;0.60;;
31368;SDS011;18004;48.416;10.066;2023-05-10T02:02:01;0.60;;;0.60;;
31368;SDS011;18004;48.416;10.066;2023-05-10T02:04:29;1.23;;;0.45;;
31368;SDS011;18004;48.416;10.066;2023-05-10T02:06:56;1.63;;;0.82;;
31368;SDS011;18004;48.416;10.066;2023-05-10T02:09:22;4.82;;;1.42;;
31368;SDS011;18004;48.416;10.066;2023-05-10T02:11:50;7.10;;;2.67;;
31368;SDS011;18004;48.416;10.066;2023-05-10T02:14:17;3.83;;;1.50;;
31368;SDS011;18004;48.416;10.066;2023-05-10T02:16:44;2.97;;;0.73;;
31368;SDS011;18004;48.416;10.066;2023-05-10T02:19:12;0.68;;;0.57;;
31368;SDS011;18004;48.416;10.066;2023-05-10T02:21:40;0.10;;;0.10;;
31368;SDS011;18004;48.416;10.066;2023-05-10T02:24:07;0.20;;;0.20;;
31368;SDS011;18004;48.416;10.066;2023-05-10T02:26:35;0.15;;;0.15;;
31368;SDS011;18004;48.416;10.066;2023-05-10T02:29:03;0.20;;;0.20;;
31368;SDS011;18004;48.416;10.066;2023-05-10T02:31:31;0.63;;;0.28;;
31368;SDS011;18004;48.416;10.066;2023-05-10T02:33:58;1.10;;;0.20;;
31368;SDS011;18004;48.416;10.066;2023-05-10T02:36:26;0.30;;;0.30;;
31368;SDS011;18004;48.416;10.066;2023-05-10T02:38:52;2.13;;;0.50;;
31368;SDS011;18004;48.416;10.066;2023-05-10T02:41:19;1.02;;;0.30;;
31368;SDS011;18004;48.416;10.066;2023-05-10T02:43:49;0.80;;;0.30;;
31368;SDS011;18004;48.416;10.066;2023-05-10T02:46:17;1.98;;;0.20;;
31368;SDS011;18004;48.416;10.066;2023-05-10T02:48:43;0.88;;;0.20;;
31368;SDS011;18004;48.416;10.066;2023-05-10T02:51:09;0.38;;;0.08;;
31368;SDS011;18004;48.416;10.066;2023-05-10T02:53:38;0.15;;;0.10;;
31368;SDS011;18004;48.416;10.066;2023-05-10T02:56:15;0.10;;;0.10;;
31368;SDS011;18004;48.416;10.066;2023-05-10T02:58:50;0.03;;;0.03;;
31368;SDS011;18004;48.416;10.066;2023-05-10T03:01:16;0.10;;;0.10;;
31368;SDS011;18004;48.416;10.066;2023-05-10T03:03:42;0.10;;;0.10;;
31368;SDS011;18004;48.416;10.066;2023-05-10T03:06:08;0.25;;;0.10;;
31368;SDS011;18004;48.416;10.066;2023-05-10T03:08:34;1.58;;;0.17;;
31368;SDS011;18004;48.416;10.066;2023-05-10T03:16:56;0.10;;;0.00;;
31368;SDS011;18004;48.416;10.066;2023-05-10T03:19:38;1.38;;;0.10;;
31368;SDS011;18004;48.416;10.066;2023-05-10T03:22:12;0.88;;;0.03;;
31368;SDS011;18004;48.416;10.066;2023-05-10T03:24:44;0.00;;;0.00;;
31368;SDS011;18004;48.416;10.066;2023-05-10T03:27:11;0.00;;;0.00;;
31368;SDS011;18004;48.416;10.066;2023-05-10T03:29:39;0.08;;;0.08;;
31368;SDS011;18004;48.416;10.066;2023-05-10T03:32:06;0.17;;;0.10;;
31368;SDS011;18004;48.416;10.066;2023-05-10T03:34:32;0.00;;;0.00;;
31368;SDS011;18004;48.416;10.066;2023-05-10T03:36:58;0.00;;;0.00;;
31368;SDS011;18004;48.416;10.066;2023-05-10T03:39:24;0.10;;;0.03;;
31368;SDS011;18004;48.416;10.066;2023-05-10T03:41:50;0.00;;;0.00;;
31368;SDS011;18004;48.416;10.066;2023-05-10T03:44:15;0.00;;;0.00;;
31368;SDS011;18004;48.416;10.066;2023-05-10T03:46:41;0.00;;;0.00;;
31368;SDS011;18004;48.416;10.066;2023-05-10T03:49:07;0.05;;;0.05;;
31368;SDS011;18004;48.416;10.066;2023-05-10T03:51:32;0.10;;;0.10;;
31368;SDS011;18004;48.416;10.066;2023-05-10T03:53:58;5.40;;;0.10;;
31368;SDS011;18004;48.416;10.066;2023-05-10T03:56:24;0.03;;;0.03;;
31368;SDS011;18004;48.416;10.066;2023-05-10T03:58:50;0.10;;;0.10;;
31368;SDS011;18004;48.416;10.066;2023-05-10T04:01:15;0.10;;;0.10;;
31368;SDS011;18004;48.416;10.066;2023-05-10T04:03:41;0.10;;;0.10;;
31368;SDS011;18004;48.416;10.066;2023-05-10T04:06:07;0.20;;;0.20;;
31368;SDS011;18004;48.416;10.066;2023-05-10T04:08:36;0.10;;;0.10;;
31368;SDS011;18004;48.416;10.066;2023-05-10T04:11:06;0.10;;;0.10;;
31368;SDS011;18004;48.416;10.066;2023-05-10T04:13:36;0.75;;;0.10;;
31368;SDS011;18004;48.416;10.066;2023-05-10T04:16:03;0.10;;;0.10;;
31368;SDS011;18004;48.416;10.066;2023-05-10T04:18:29;2.70;;;0.17;;
31368;SDS011;18004;48.416;10.066;2023-05-10T04:20:55;0.55;;;0.17;;
31368;SDS011;18004;48.416;10.066;2023-05-10T04:23:21;0.10;;;0.10;;
31368;SDS011;18004;48.416;10.066;2023-05-10T04:25:47;0.20;;;0.13;;
31368;SDS011;18004;48.416;10.066;2023-05-10T04:28:12;0.35;;;0.20;;
31368;SDS011;18004;48.416;10.066;2023-05-10T04:30:38;0.20;;;0.20;;
31368;SDS011;18004;48.416;10.066;2023-05-10T04:33:05;0.20;;;0.20;;
31368;SDS011;18004;48.416;10.066;2023-05-10T04:35:31;0.40;;;0.30;;
31368;SDS011;18004;48.416;10.066;2023-05-10T04:37:57;1.15;;;0.28;;
31368;SDS011;18004;48.416;10.066;2023-05-10T04:40:22;2.17;;;0.43;;
31368;SDS011;18004;48.416;10.066;2023-05-10T04:42:48;1.55;;;0.55;;
31368;SDS011;18004;48.416;10.066;2023-05-10T04:45:14;1.40;;;0.40;;
31368;SDS011;18004;48.416;10.066;2023-05-10T04:47:40;1.75;;;0.93;;
31368;SDS011;18004;48.416;10.066;2023-05-10T04:50:06;4.35;;;1.77;;
31368;SDS011;18004;48.416;10.066;2023-05-10T04:52:32;3.80;;;1.48;;
31368;SDS011;18004;48.416;10.066;2023-05-10T04:54:58;3.20;;;2.25;;
31368;SDS011;18004;48.416;10.066;2023-05-10T04:57:24;1.52;;;1.00;;
31368;SDS011;18004;48.416;10.066;2023-05-10T04:59:50;9.60;;;3.50;;
31368;SDS011;18004;48.416;10.066;2023-05-10T05:02:16;9.68;;;4.60;;
31368;SDS011;18004;48.416;10.066;2023-05-10T05:04:41;7.93;;;3.72;;
31368;SDS011;18004;48.416;10.066;2023-05-10T05:07:07;8.07;;;3.47;;
31368;SDS011;18004;48.416;10.066;2023-05-10T05:09:33;6.05;;;2.75;;
31368;SDS011;18004;48.416;10.066;2023-05-10T05:11:59;7.80;;;3.13;;
31368;SDS011;18004;48.416;10.066;2023-05-10T05:14:25;7.20;;;2.85;;
31368;SDS011;18004;48.416;10.066;2023-05-10T05:16:51;3.53;;;1.23;;
31368;SDS011;18004;48.416;10.066;2023-05-10T05:19:17;3.08;;;0.70;;
31368;SDS011;18004;48.416;10.066;2023-05-10T05:21:43;0.77;;;0.60;;
31368;SDS011;18004;48.416;10.066;2023-05-10T05:24:09;3.13;;;0.75;;
31368;SDS011;18004;48.416;10.066;2023-05-10T05:26:36;2.13;;;0.73;;
31368;SDS011;18004;48.416;10.066;2023-05-10T05:29:02;2.20;;;0.80;;
31368;SDS011;18004;48.416;10.066;2023-05-10T05:31:28;3.20;;;1.38;;
31368;SDS011;18004;48.416;10.066;2023-05-10T05:33:54;1.23;;;0.77;;
31368;SDS011;18004;48.416;10.066;2023-05-10T05:36:20;1.13;;;0.60;;
31368;SDS011;18004;48.416;10.066;2023-05-10T05:38:46;1.30;;;0.70;;
31368;SDS011;18004;48.416;10.066;2023-05-10T05:41:12;1.85;;;0.60;;
31368;SDS011;18004;48.416;10.066;2023-05-10T05:43:38;3.10;;;0.50;;
31368;SDS011;18004;48.416;10.066;2023-05-10T05:46:04;1.73;;;0.30;;
31368;SDS011;18004;48.416;10.066;2023-05-10T05:48:30;1.38;;;0.40;;
31368;SDS011;18004;48.416;10.066;2023-05-10T05:50:56;0.63;;;0.50;;
31368;SDS011;18004;48.416;10.066;2023-05-10T05:53:22;0.57;;;0.40;;
31368;SDS011;18004;48.416;10.066;2023-05-10T05:55:55;0.93;;;0.30;;
31368;SDS011;18004;48.416;10.066;2023-05-10T05:58:23;1.67;;;0.40;;
31368;SDS011;18004;48.416;10.066;2023-05-10T06:00:49;0.85;;;0.40;;
31368;SDS011;18004;48.416;10.066;2023-05-10T06:03:17;1.67;;;0.82;;
31368;SDS011;18004;48.416;10.066;2023-05-10T06:05:43;8.45;;;2.45;;
31368;SDS011;18004;48.416;10.066;2023-05-10T06:08:09;5.05;;;3.45;;
31368;SDS011;18004;48.416;10.066;2023-05-10T06:10:35;5.72;;;4.32;;
31368;SDS011;18004;48.416;10.066;2023-05-10T06:13:01;7.65;;;5.85;;
31368;SDS011;18004;48.416;10.066;2023-05-10T06:15:27;10.82;;;7.72;;
31368;SDS011;18004;48.416;10.066;2023-05-10T06:17:53;7.30;;;4.72;;
31368;SDS011;18004;48.416;10.066;2023-05-10T06:20:18;7.10;;;5.50;;
31368;SDS011;18004;48.416;10.066;2023-05-10T06:22:44;7.30;;;4.85;;
31368;SDS011;18004;48.416;10.066;2023-05-10T06:25:10;7.15;;;5.00;;
31368;SDS011;18004;48.416;10.066;2023-05-10T06:27:36;4.20;;;3.28;;
31368;SDS011;18004;48.416;10.066;2023-05-10T06:30:02;4.15;;;3.30;;
31368;SDS011;18004;48.416;10.066;2023-05-10T06:32:28;5.70;;;2.63;;
31368;SDS011;18004;48.416;10.066;2023-05-10T06:34:54;4.85;;;2.53;;
31368;SDS011;18004;48.416;10.066;2023-05-10T06:37:20;7.63;;;2.60;;
31368;SDS011;18004;48.416;10.066;2023-05-10T06:39:46;2.70;;;1.15;;
31368;SDS011;18004;48.416;10.066;2023-05-10T06:42:11;2.50;;;0.82;;
31368;SDS011;18004;48.416;10.066;2023-05-10T06:44:37;1.10;;;0.68;;
31368;SDS011;18004;48.416;10.066;2023-05-10T06:47:03;4.57;;;0.90;;
31368;SDS011;18004;48.416;10.066;2023-05-10T06:49:29;1.35;;;0.90;;
31368;SDS011;18004;48.416;10.066;2023-05-10T06:51:55;2.35;;;0.75;;
31368;SDS011;18004;48.416;10.066;2023-05-10T06:54:21;4.38;;;0.70;;
31368;SDS011;18004;48.416;10.066;2023-05-10T06:56:48;7.05;;;0.68;;
31368;SDS011;18004;48.416;10.066;2023-05-10T06:59:14;1.00;;;0.57;;
31368;SDS011;18004;48.416;10.066;2023-05-10T07:01:41;1.83;;;0.65;;
31368;SDS011;18004;48.416;10.066;2023-05-10T07:04:07;1.70;;;0.73;;
31368;SDS011;18004;48.416;10.066;2023-05-10T07:06:33;3.95;;;0.80;;
31368;SDS011;18004;48.416;10.066;2023-05-10T07:08:59;2.83;;;1.20;;
31368;SDS011;18004;48.416;10.066;2023-05-10T07:11:25;3.75;;;1.15;;
31368;SDS011;18004;48.416;10.066;2023-05-10T07:13:51;2.30;;;1.08;;
31368;SDS011;18004;48.416;10.066;2023-05-10T07:16:17;6.20;;;3.47;;
31368;SDS011;18004;48.416;10.066;2023-05-10T07:18:43;14.98;;;3.45;;
31368;SDS011;18004;48.416;10.066;2023-05-10T07:21:09;5.68;;;3.22;;
31368;SDS011;18004;48.416;10.066;2023-05-10T07:23:35;2.53;;;1.70;;
31368;SDS011;18004;48.416;10.066;2023-05-10T07:26:01;3.13;;;1.70;;
31368;SDS011;18004;48.416;10.066;2023-05-10T07:28:27;0.77;;;0.60;;
31368;SDS011;18004;48.416;10.066;2023-05-10T07:30:53;3.50;;;2.10;;
31368;SDS011;18004;48.416;10.066;2023-05-10T07:33:19;4.43;;;1.50;;
31368;SDS011;18004;48.416;10.066;2023-05-10T07:35:44;3.03;;;0.80;;
31368;SDS011;18004;48.416;10.066;2023-05-10T07:38:10;2.17;;;0.93;;
31368;SDS011;18004;48.416;10.066;2023-05-10T07:40:36;3.22;;;0.55;;
31368;SDS011;18004;48.416;10.066;2023-05-10T07:43:02;1.67;;;0.60;;
31368;SDS011;18004;48.416;10.066;2023-05-10T07:45:28;1.48;;;0.60;;
31368;SDS011;18004;48.416;10.066;2023-05-10T07:47:54;0.65;;;0.47;;
31368;SDS011;18004;48.416;10.066;2023-05-10T07:50:19;1.60;;;0.60;;
31368;SDS011;18004;48.416;10.066;2023-05-10T07:52:46;0.57;;;0.57;;
31368;SDS011;18004;48.416;10.066;2023-05-10T07:55:13;2.25;;;0.63;;
31368;SDS011;18004;48.416;10.066;2023-05-10T07:57:39;3.63;;;0.70;;
31368;SDS011;18004;48.416;10.066;2023-05-10T08:00:05;4.68;;;0.60;;
31368;SDS011;18004;48.416;10.066;2023-05-10T08:02:32;0.68;;;0.52;;
31368;SDS011;18004;48.416;10.066;2023-05-10T08:05:00;1.30;;;0.57;;
31368;SDS011;18004;48.416;10.066;2023-05-10T08:07:26;1.15;;;0.60;;
31368;SDS011;18004;48.416;10.066;2023-05-10T08:09:51;1.00;;;0.40;;
31368;SDS011;18004;48.416;10.066;2023-05-10T08:12:17;1.15;;;0.30;;
31368;SDS011;18004;48.416;10.066;2023-05-10T08:14:43;0.30;;;0.20;;
31368;SDS011;18004;48.416;10.066;2023-05-10T08:17:08;0.75;;;0.30;;
31368;SDS011;18004;48.416;10.066;2023-05-10T08:19:34;1.48;;;0.57;;
31368;SDS011;18004;48.416;10.066;2023-05-10T08:22:00;0.20;;;0.20;;
31368;SDS011;18004;48.416;10.066;2023-05-10T08:24:25;1.08;;;0.57;;
31368;SDS011;18004;48.416;10.066;2023-05-10T08:26:51;0.20;;;0.17;;
31368;SDS011;18004;48.416;10.066;2023-05-10T08:29:17;0.32;;;0.15;;
31368;SDS011;18004;48.416;10.066;2023-05-10T08:31:43;3.10;;;0.55;;
31368;SDS011;18004;48.416;10.066;2023-05-10T08:34:09;0.80;;;0.40;;
31368;SDS011;18004;48.416;10.066;2023-05-10T08:36:34;0.20;;;0.20;;
31368;SDS011;18004;48.416;10.066;2023-05-10T08:39:01;0.20;;;0.20;;
31368;SDS011;18004;48.416;10.066;2023-05-10T08:41:27;0.30;;;0.22;;
31368;SDS011;18004;48.416;10.066;2023-05-10T08:43:53;1.15;;;0.30;;
31368;SDS011;18004;48.416;10.066;2023-05-10T08:46:20;3.15;;;0.32;;
31368;SDS011;18004;48.416;10.066;2023-05-10T08:48:47;0.20;;;0.15;;
31368;SDS011;18004;48.416;10.066;2023-05-10T08:51:14;0.30;;;0.22;;
31368;SDS011;18004;48.416;10.066;2023-05-10T08:53:43;0.90;;;0.30;;
31368;SDS011;18004;48.416;10.066;2023-05-10T08:56:10;0.10;;;0.10;;
31368;SDS011;18004;48.416;10.066;2023-05-10T08:58:36;0.30;;;0.30;;
31368;SDS011;18004;48.416;10.066;2023-05-10T09:01:03;2.53;;;0.20;;
31368;SDS011;18004;48.416;10.066;2023-05-10T09:03:29;1.98;;;0.20;;
31368;SDS011;18004;48.416;10.066;2023-05-10T09:05:56;0.20;;;0.20;;
31368;SDS011;18004;48.416;10.066;2023-05-10T09:08:22;0.20;;;0.20;;
31368;SDS011;18004;48.416;10.066;2023-05-10T09:10:51;0.22;;;0.17;;
31368;SDS011;18004;48.416;10.066;2023-05-10T09:13:17;0.43;;;0.20;;
31368;SDS011;18004;48.416;10.066;2023-05-10T09:15:44;0.10;;;0.10;;
31368;SDS011;18004;48.416;10.066;2023-05-10T09:18:10;0.65;;;0.10;;
31368;SDS011;18004;48.416;10.066;2023-05-10T09:20:36;0.20;;;0.10;;
31368;SDS011;18004;48.416;10.066;2023-05-10T09:23:02;2.20;;;0.28;;
31368;SDS011;18004;48.416;10.066;2023-05-10T09:25:28;0.52;;;0.10;;
31368;SDS011;18004;48.416;10.066;2023-05-10T09:27:54;0.20;;;0.20;;
31368;SDS011;18004;48.416;10.066;2023-05-10T09:30:24;2.47;;;0.20;;
31368;SDS011;18004;48.416;10.066;2023-05-10T09:32:51;0.05;;;0.05;;
31368;SDS011;18004;48.416;10.066;2023-05-10T09:35:17;8.40;;;0.20;;
31368;SDS011;18004;48.416;10.066;2023-05-10T09:37:45;1.08;;;0.15;;
31368;SDS011;18004;48.416;10.066;2023-05-10T09:40:16;0.00;;;0.00;;
31368;SDS011;18004;48.416;10.066;2023-05-10T09:42:59;2.15;;;0.30;;
31368;SDS011;18004;48.416;10.066;2023-05-10T09:45:27;0.10;;;0.03;;
31368;SDS011;18004;48.416;10.066;2023-05-10T09:47:55;0.13;;;0.10;;
31368;SDS011;18004;48.416;10.066;2023-05-10T09:50:22;0.10;;;0.10;;
31368;SDS011;18004;48.416;10.066;2023-05-10T09:52:49;0.30;;;0.20;;
31368;SDS011;18004;48.416;10.066;2023-05-10T09:55:16;0.10;;;0.10;;
31368;SDS011;18004;48.416;10.066;2023-05-10T09:57:45;0.22;;;0.13;;
31368;SDS011;18004;48.416;10.066;2023-05-10T10:00:16;0.00;;;0.00;;
31368;SDS011;18004;48.416;10.066;2023-05-10T10:02:45;0.10;;;0.10;;
31368;SDS011;18004;48.416;10.066;2023-05-10T10:05:13;0.10;;;0.10;;
31368;SDS011;18004;48.416;10.066;2023-05-10T10:07:39;1.25;;;0.13;;
31368;SDS011;18004;48.416;10.066;2023-05-10T10:10:05;0.20;;;0.13;;
31368;SDS011;18004;48.416;10.066;2023-05-10T10:12:36;0.20;;;0.20;;
31368;SDS011;18004;48.416;10.066;2023-05-10T10:15:02;0.45;;;0.20;;
31368;SDS011;18004;48.416;10.066;2023-05-10T10:17:29;0.10;;;0.10;;
31368;SDS011;18004;48.416;10.066;2023-05-10T10:19:57;0.20;;;0.17;;
31368;SDS011;18004;48.416;10.066;2023-05-10T10:22:23;0.20;;;0.08;;
31368;SDS011;18004;48.416;10.066;2023-05-10T10:24:49;0.30;;;0.00;;
31368;SDS011;18004;48.416;10.066;2023-05-10T10:27:20;0.40;;;0.20;;
31368;SDS011;18004;48.416;10.066;2023-05-10T10:29:52;0.22;;;0.20;;
31368;SDS011;18004;48.416;10.066;2023-05-10T10:32:35;0.10;;;0.03;;
31368;SDS011;18004;48.416;10.066;2023-05-10T10:35:22;1.85;;;0.10;;
31368;SDS011;18004;48.416;10.066;2023-05-10T10:37:48;0.10;;;0.10;;
31368;SDS011;18004;48.416;10.066;2023-05-10T10:40:22;4.43;;;0.10;;
31368;SDS011;18004;48.416;10.066;2023-05-10T10:42:50;0.10;;;0.10;;
31368;SDS011;18004;48.416;10.066;2023-05-10T10:45:16;0.10;;;0.10;;
31368;SDS011;18004;48.416;10.066;2023-05-10T10:47:42;58.30;;;6.78;;
31368;SDS011;18004;48.416;10.066;2023-05-10T10:50:08;0.30;;;0.10;;
31368;SDS011;18004;48.416;10.066;2023-05-10T10:52:41;0.15;;;0.10;;
31368;SDS011;18004;48.416;10.066;2023-05-10T10:55:12;2.75;;;0.28;;
31368;SDS011;18004;48.416;10.066;2023-05-10T10:57:48;11.93;;;2.85;;
31368;SDS011;18004;48.416;10.066;2023-05-10T11:10:37;0.15;;;0.13;;
31368;SDS011;18004;48.416;10.066;2023-05-10T11:13:07;0.00;;;0.00;;
31368;SDS011;18004;48.416;10.066;2023-05-10T11:15:39;0.00;;;0.00;;
31368;SDS011;18004;48.416;10.066;2023-05-10T11:18:21;0.00;;;0.00;;
31368;SDS011;18004;48.416;10.066;2023-05-10T11:20:54;0.85;;;0.10;;
31368;SDS011;18004;48.416;10.066;2023-05-10T11:23:29;0.10;;;0.10;;
31368;SDS011;18004;48.416;10.066;2023-05-10T11:26:12;0.08;;;0.08;;
31368;SDS011;18004;48.416;10.066;2023-05-10T11:28:42;14.40;;;1.00;;
31368;SDS011;18004;48.416;10.066;2023-05-10T11:31:08;1.42;;;0.50;;
31368;SDS011;18004;48.416;10.066;2023-05-10T11:33:47;1.60;;;0.17;;
31368;SDS011;18004;48.416;10.066;2023-05-10T11:36:19;0.17;;;0.10;;
31368;SDS011;18004;48.416;10.066;2023-05-10T11:38:46;0.20;;;0.20;;
31368;SDS011;18004;48.416;10.066;2023-05-10T11:41:14;5.57;;;0.30;;
31368;SDS011;18004;48.416;10.066;2023-05-10T11:43:42;0.55;;;0.13;;
31368;SDS011;18004;48.416;10.066;2023-05-10T11:46:09;0.47;;;0.30;;
31368;SDS011;18004;48.416;10.066;2023-05-10T11:48:36;0.20;;;0.17;;
31368;SDS011;18004;48.416;10.066;2023-05-10T11:51:04;0.10;;;0.10;;
31368;SDS011;18004;48.416;10.066;2023-05-10T11:53:31;0.20;;;0.20;;
31368;SDS011;18004;48.416;10.066;2023-05-10T11:58:33;0.10;;;0.10;;
31368;SDS011;18004;48.416;10.066;2023-05-10T12:01:00;0.30;;;0.08;;
31368;SDS011;18004;48.416;10.066;2023-05-10T12:03:27;0.32;;;0.10;;
31368;SDS011;18004;48.416;10.066;2023-05-10T12:05:53;0.08;;;0.08;;
31368;SDS011;18004;48.416;10.066;2023-05-10T12:08:21;3.13;;;0.20;;
31368;SDS011;18004;48.416;10.066;2023-05-10T12:10:48;0.20;;;0.20;;
31368;SDS011;18004;48.416;10.066;2023-05-10T12:13:14;0.65;;;0.22;;
31368;SDS011;18004;48.416;10.066;2023-05-10T12:15:41;6.10;;;0.40;;
31368;SDS011;18004;48.416;10.066;2023-05-10T12:18:10;0.10;;;0.10;;
31368;SDS011;18004;48.416;10.066;2023-05-10T12:20:38;0.38;;;0.30;;
31368;SDS011;18004;48.416;10.066;2023-05-10T12:23:04;0.65;;;0.20;;
31368;SDS011;18004;48.416;10.066;2023-05-10T12:25:31;0.80;;;0.40;;
31368;SDS011;18004;48.416;10.066;2023-05-10T12:27:59;0.82;;;0.25;;
31368;SDS011;18004;48.416;10.066;2023-05-10T12:30:27;0.20;;;0.20;;
31368;SDS011;18004;48.416;10.066;2023-05-10T12:32:59;0.75;;;0.50;;
31368;SDS011;18004;48.416;10.066;2023-05-10T12:35:32;2.80;;;1.58;;
31368;SDS011;18004;48.416;10.066;2023-05-10T12:37:59;4.47;;;0.70;;
31368;SDS011;18004;48.416;10.066;2023-05-10T12:40:25;1.25;;;0.70;;
31368;SDS011;18004;48.416;10.066;2023-05-10T12:42:50;0.95;;;0.40;;
31368;SDS011;18004;48.416;10.066;2023-05-10T12:45:18;0.60;;;0.40;;
31368;SDS011;18004;48.416;10.066;2023-05-10T12:47:43;0.20;;;0.20;;
31368;SDS011;18004;48.416;10.066;2023-05-10T12:50:09;0.90;;;0.20;;
31368;SDS011;18004;48.416;10.066;2023-05-10T12:52:35;0.40;;;0.30;;
31368;SDS011;18004;48.416;10.066;2023-05-10T12:55:01;2.58;;;1.10;;
31368;SDS011;18004;48.416;10.066;2023-05-10T12:57:28;1.58;;;1.17;;
31368;SDS011;18004;48.416;10.066;2023-05-10T12:59:54;3.75;;;1.27;;
31368;SDS011;18004;48.416;10.066;2023-05-10T13:02:20;0.75;;;0.30;;
31368;SDS011;18004;48.416;10.066;2023-05-10T13:04:48;0.80;;;0.40;;
31368;SDS011;18004;48.416;10.066;2023-05-10T13:07:14;0.88;;;0.43;;
31368;SDS011;18004;48.416;10.066;2023-05-10T13:09:39;0.65;;;0.40;;
31368;SDS011;18004;48.416;10.066;2023-05-10T13:12:05;1.20;;;0.60;;
31368;SDS011;18004;48.416;10.066;2023-05-10T13:14:31;0.55;;;0.43;;
31368;SDS011;18004;48.416;10.066;2023-05-10T13:16:57;0.65;;;0.45;;
31368;SDS011;18004;48.416;10.066;2023-05-10T13:19:23;0.65;;;0.55;;
31368;SDS011;18004;48.416;10.066;2023-05-10T13:21:49;3.38;;;0.30;;
31368;SDS011;18004;48.416;10.066;2023-05-10T13:24:15;0.73;;;0.30;;
31368;SDS011;18004;48.416;10.066;2023-05-10T13:26:42;0.60;;;0.30;;
31368;SDS011;18004;48.416;10.066;2023-05-10T13:29:08;2.38;;;0.20;;
31368;SDS011;18004;48.416;10.066;2023-05-10T13:31:34;3.38;;;0.40;;
31368;SDS011;18004;48.416;10.066;2023-05-10T13:34:00;0.15;;;0.15;;
31368;SDS011;18004;48.416;10.066;2023-05-10T13:36:26;1.08;;;0.52;;
31368;SDS011;18004;48.416;10.066;2023-05-10T13:38:52;2.38;;;0.43;;
31368;SDS011;18004;48.416;10.066;2023-05-10T13:41:18;0.40;;;0.20;;
31368;SDS011;18004;48.416;10.066;2023-05-10T13:43:44;1.20;;;0.40;;
31368;SDS011;18004;48.416;10.066;2023-05-10T13:46:10;1.23;;;0.35;;
31368;SDS011;18004;48.416;10.066;2023-05-10T13:48:36;2.47;;;0.20;;
31368;SDS011;18004;48.416;10.066;2023-05-10T13:51:04;1.17;;;0.30;;
31368;SDS011;18004;48.416;10.066;2023-05-10T13:53:30;0.50;;;0.40;;
31368;SDS011;18004;48.416;10.066;2023-05-10T13:55:56;0.57;;;0.30;;
31368;SDS011;18004;48.416;10.066;2023-05-10T13:58:22;3.72;;;0.50;;
31368;SDS011;18004;48.416;10.066;2023-05-10T14:00:48;1.55;;;0.22;;
31368;SDS011;18004;48.416;10.066;2023-05-10T14:03:14;0.68;;;0.22;;
31368;SDS011;18004;48.416;10.066;2023-05-10T14:05:40;0.93;;;0.20;;
31368;SDS011;18004;48.416;10.066;2023-05-10T14:08:06;6.32;;;0.50;;
31368;SDS011;18004;48.416;10.066;2023-05-10T14:10:32;0.70;;;0.40;;
31368;SDS011;18004;48.416;10.066;2023-05-10T14:12:58;0.90;;;0.40;;
31368;SDS011;18004;48.416;10.066;2023-05-10T14:15:24;0.30;;;0.30;;
31368;SDS011;18004;48.416;10.066;2023-05-10T14:17:49;0.80;;;0.32;;
31368;SDS011;18004;48.416;10.066;2023-05-10T14:20:15;3.38;;;0.30;;
31368;SDS011;18004;48.416;10.066;2023-05-10T14:22:41;0.38;;;0.32;;
31368;SDS011;18004;48.416;10.066;2023-05-10T14:25:07;0.20;;;0.20;;
31368;SDS011;18004;48.416;10.066;2023-05-10T14:27:33;4.28;;;0.30;;
31368;SDS011;18004;48.416;10.066;2023-05-10T14:29:59;0.85;;;0.40;;
31368;SDS011;18004;48.416;10.066;2023-05-10T14:32:24;1.70;;;0.70;;
31368;SDS011;18004;48.416;10.066;2023-05-10T14:34:52;5.43;;;0.55;;
31368;SDS011;18004;48.416;10.066;2023-05-10T14:37:18;7.40;;;0.75;;
31368;SDS011;18004;48.416;10.066;2023-05-10T14:39:43;1.48;;;0.40;;
31368;SDS011;18004;48.416;10.066;2023-05-10T14:42:09;0.50;;;0.38;;
31368;SDS011;18004;48.416;10.066;2023-05-10T14:44:35;0.30;;;0.30;;
31368;SDS011;18004;48.416;10.066;2023-05-10T14:47:01;0.57;;;0.40;;
31368;SDS011;18004;48.416;10.066;2023-05-10T14:49:26;0.75;;;0.40;;
31368;SDS011;18004;48.416;10.066;2023-05-10T14:51:52;0.40;;;0.40;;
31368;SDS011;18004;48.416;10.066;2023-05-10T14:54:18;0.50;;;0.50;;
31368;SDS011;18004;48.416;10.066;2023-05-10T14:56:43;0.25;;;0.25;;
31368;SDS011;18004;48.416;10.066;2023-05-10T14:59:10;0.82;;;0.40;;
31368;SDS011;18004;48.416;10.066;2023-05-10T15:01:35;0.45;;;0.40;;
31368;SDS011;18004;48.416;10.066;2023-05-10T15:04:05;1.38;;;0.75;;
31368;SDS011;18004;48.416;10.066;2023-05-10T15:06:31;0.55;;;0.47;;
31368;SDS011;18004;48.416;10.066;2023-05-10T15:08:58;0.30;;;0.30;;
31368;SDS011;18004;48.416;10.066;2023-05-10T15:11:25;0.73;;;0.70;;